createdAt,value
2022-09-12T00:01:10.173Z,96786.72
2022-09-12T00:03:40.852Z,96786.13
2022-09-12T00:06:10.956Z,96780.38
2022-09-12T00:08:39.058Z,96778.00
2022-09-12T00:11:09.341Z,96780.34
2022-09-12T00:13:41.526Z,96776.31
2022-09-12T00:16:16.184Z,96780.50
2022-09-12T00:18:47.107Z,96780.50
2022-09-12T00:21:16.201Z,96779.94
2022-09-12T00:23:44.223Z,96771.13
2022-09-12T00:26:12.583Z,96769.56
2022-09-12T00:28:42.334Z,96768.16
2022-09-12T00:31:12.554Z,96773.69
2022-09-12T00:33:41.003Z,96763.94
2022-09-12T00:36:12.632Z,96765.06
2022-09-12T00:38:42.200Z,96766.41
2022-09-12T00:41:16.761Z,96771.00
2022-09-12T00:43:47.298Z,96766.78
2022-09-12T00:46:23.470Z,96764.41
2022-09-12T00:48:57.087Z,96771.66
2022-09-12T00:51:27.143Z,96778.91
2022-09-12T00:53:57.130Z,96772.16
2022-09-12T00:56:25.572Z,96766.69
2022-09-12T00:58:59.032Z,96771.53
2022-09-12T01:01:31.717Z,96771.53
2022-09-12T01:04:00.722Z,96764.16
2022-09-12T01:06:36.662Z,96758.28
2022-09-12T01:09:05.762Z,96753.22
2022-09-12T01:11:37.554Z,96751.84
2022-09-12T01:14:07.977Z,96748.59
2022-09-12T01:16:37.693Z,96747.47
2022-09-12T01:22:19.737Z,96744.84
2022-09-12T01:24:58.457Z,96736.75
2022-09-12T01:27:44.859Z,96735.22
2022-09-12T01:30:45.303Z,96733.78
2022-09-12T01:33:32.745Z,96734.41
2022-09-12T01:36:19.791Z,96736.22
2022-09-12T01:38:51.079Z,96724.66
2022-09-12T01:41:26.436Z,96727.41
2022-09-12T01:44:03.128Z,96718.63
2022-09-12T01:46:37.431Z,96720.56
2022-09-12T01:49:13.283Z,96710.94
2022-09-12T01:51:45.453Z,96710.94
2022-09-12T01:54:20.849Z,96718.31
2022-09-12T01:56:52.857Z,96710.75
2022-09-12T01:59:26.711Z,96716.31
2022-09-12T02:02:03.470Z,96716.03
2022-09-12T02:04:35.518Z,96716.41
2022-09-12T02:07:09.379Z,96708.75
2022-09-12T02:09:43.708Z,96707.19
2022-09-12T02:12:14.855Z,96708.41
2022-09-12T02:14:48.958Z,96705.75
2022-09-12T02:17:22.171Z,96709.88
2022-09-12T02:19:54.904Z,96700.72
2022-09-12T02:22:26.237Z,96702.94
2022-09-12T02:24:58.550Z,96694.00
2022-09-12T02:27:31.657Z,96691.63
2022-09-12T02:29:59.909Z,96690.06
2022-09-12T02:32:36.429Z,96692.59
2022-09-12T02:35:08.376Z,96683.44
2022-09-12T02:37:53.341Z,96685.16
2022-09-12T02:40:21.544Z,96678.56
2022-09-12T02:42:49.889Z,96689.16
2022-09-12T02:45:18.943Z,96694.44
2022-09-12T02:47:52.854Z,96687.28
2022-09-12T02:50:21.172Z,96677.50
2022-09-12T02:52:49.712Z,96681.72
2022-09-12T02:55:18.391Z,96682.81
2022-09-12T02:57:46.425Z,96686.19
2022-09-12T03:00:15.421Z,96684.47
2022-09-12T03:03:02.167Z,96675.81
2022-09-12T03:05:34.082Z,96682.59
2022-09-12T03:08:27.889Z,96679.09
2022-09-12T03:11:23.855Z,96677.81
2022-09-12T03:14:01.956Z,96686.69
2022-09-12T03:16:36.594Z,96680.00
2022-09-12T03:19:15.551Z,96680.13
2022-09-12T03:21:53.876Z,96685.66
2022-09-12T03:24:27.962Z,96684.44
2022-09-12T03:27:00.108Z,96682.88
2022-09-12T03:29:29.423Z,96674.47
2022-09-12T03:31:59.183Z,96679.88
2022-09-12T03:34:29.164Z,96680.97
2022-09-12T03:36:57.371Z,96678.34
2022-09-12T03:39:26.881Z,96684.50
2022-09-12T03:41:54.940Z,96685.91
2022-09-12T03:44:22.903Z,96691.72
2022-09-12T03:46:51.081Z,96692.81
2022-09-12T03:49:19.245Z,96688.72
2022-09-12T03:51:48.599Z,96687.16
2022-09-12T03:54:16.591Z,96683.06
2022-09-12T03:56:44.618Z,96686.31
2022-09-12T03:59:12.597Z,96676.81
2022-09-12T04:01:41.781Z,96679.59
2022-09-12T04:04:10.236Z,96684.53
2022-09-12T04:06:38.187Z,96677.31
2022-09-12T04:09:07.572Z,96676.47
2022-09-12T04:11:35.904Z,96680.69
2022-09-12T04:14:04.031Z,96683.19
2022-09-12T04:16:32.961Z,96678.75
2022-09-12T04:19:00.987Z,96675.84
2022-09-12T04:21:28.940Z,96684.16
2022-09-12T04:23:56.916Z,96689.72
2022-09-12T04:26:26.481Z,96683.44
2022-09-12T04:28:57.634Z,96683.69
2022-09-12T04:31:26.936Z,96681.28
2022-09-12T04:33:56.293Z,96680.69
2022-09-12T04:36:24.591Z,96684.44
2022-09-12T04:38:53.124Z,96684.44
2022-09-12T04:41:23.728Z,96675.78
2022-09-12T04:43:59.234Z,96677.69
2022-09-12T04:46:27.540Z,96675.53
2022-09-12T04:48:57.047Z,96680.72
2022-09-12T04:51:28.156Z,96675.69
2022-09-12T04:53:58.476Z,96671.22
2022-09-12T04:56:27.521Z,96666.91
2022-09-12T04:58:58.579Z,96671.47
2022-09-12T05:01:28.187Z,96671.47
2022-09-12T05:03:57.593Z,96671.09
2022-09-12T05:06:27.958Z,96670.66
2022-09-12T05:08:57.421Z,96665.09
2022-09-12T05:11:41.292Z,96673.03
2022-09-12T05:14:16.564Z,96670.25
2022-09-12T05:16:49.053Z,96668.84
2022-09-12T05:19:17.707Z,96670.97
2022-09-12T05:21:45.921Z,96672.78
2022-09-12T05:24:13.942Z,96675.78
2022-09-12T05:26:41.934Z,96682.78
2022-09-12T05:29:09.960Z,96686.00
2022-09-12T05:31:39.326Z,96681.53
2022-09-12T05:34:10.114Z,96680.47
2022-09-12T05:36:38.552Z,96686.59
2022-09-12T05:39:06.631Z,96691.75
2022-09-12T05:41:35.395Z,96687.06
2022-09-12T05:44:05.502Z,96685.72
2022-09-12T05:46:38.174Z,96681.28
2022-09-12T05:49:09.050Z,96682.47
2022-09-12T05:51:39.336Z,96680.78
2022-09-12T05:54:09.538Z,96681.97
2022-09-12T05:56:40.487Z,96684.34
2022-09-12T05:59:12.085Z,96676.16
2022-09-12T06:01:40.330Z,96682.41
2022-09-12T06:04:10.020Z,96684.31
2022-09-12T06:06:41.550Z,96682.84
2022-09-12T06:09:10.016Z,96685.84
2022-09-12T06:11:40.856Z,96690.75
2022-09-12T06:14:10.277Z,96682.28
2022-09-12T06:16:38.899Z,96686.09
2022-09-12T06:19:13.362Z,96680.03
2022-09-12T06:21:41.419Z,96690.72
2022-09-12T06:24:09.509Z,96690.19
2022-09-12T06:26:37.656Z,96684.25
2022-09-12T06:29:06.288Z,96689.63
2022-09-12T06:31:36.135Z,96680.22
2022-09-12T06:34:06.206Z,96692.22
2022-09-12T06:36:38.217Z,96688.78
2022-09-12T06:39:08.839Z,96688.00
2022-09-12T06:41:39.389Z,96681.47
2022-09-12T06:44:13.220Z,96682.50
2022-09-12T06:46:41.171Z,96683.38
2022-09-12T06:49:09.451Z,96689.09
2022-09-12T06:51:38.932Z,96681.06
2022-09-12T06:54:07.128Z,96689.72
2022-09-12T06:56:35.356Z,96693.94
2022-09-12T06:59:03.314Z,96692.84
2022-09-12T07:01:32.993Z,96688.69
2022-09-12T07:04:03.045Z,96700.19
2022-09-12T07:06:32.789Z,96699.91
2022-09-12T07:09:04.510Z,96691.81
2022-09-12T07:11:34.583Z,96689.44
2022-09-12T07:14:04.109Z,96680.69
2022-09-12T07:16:32.473Z,96684.03
2022-09-12T07:19:02.030Z,96681.38
2022-09-12T07:21:31.057Z,96677.03
2022-09-12T07:23:59.926Z,96684.84
2022-09-12T07:26:30.968Z,96679.50
2022-09-12T07:29:19.053Z,96677.81
2022-09-12T07:31:48.305Z,96671.63
2022-09-12T07:34:17.620Z,96673.00
2022-09-12T07:36:45.658Z,96674.47
2022-09-12T07:39:13.653Z,96672.78
2022-09-12T07:41:42.942Z,96667.53
2022-09-12T07:44:11.087Z,96676.22
2022-09-12T07:46:40.138Z,96672.06
2022-09-12T07:49:08.499Z,96670.75
2022-09-12T07:51:36.686Z,96666.19
2022-09-12T07:54:09.174Z,96665.97
2022-09-12T07:56:39.351Z,96665.38
2022-09-12T07:59:09.003Z,96663.09
2022-09-12T08:01:37.201Z,96663.69
2022-09-12T08:04:05.992Z,96658.81
2022-09-12T08:06:36.292Z,96662.75
2022-09-12T08:09:07.936Z,96661.72
2022-09-12T08:11:36.310Z,96655.28
2022-09-12T08:14:05.796Z,96658.25
2022-09-12T08:16:35.709Z,96657.31
2022-09-12T08:19:04.647Z,96664.19
2022-09-12T08:21:34.053Z,96663.38
2022-09-12T08:24:04.706Z,96660.50
2022-09-12T08:26:33.925Z,96662.38
2022-09-12T08:29:02.473Z,96661.56
2022-09-12T08:31:31.930Z,96661.63
2022-09-12T08:34:01.303Z,96663.47
2022-09-12T08:36:29.708Z,96670.53
2022-09-12T08:39:00.367Z,96667.38
2022-09-12T08:41:32.037Z,96668.91
2022-09-12T08:44:25.792Z,96667.41
2022-09-12T08:47:08.100Z,96660.41
2022-09-12T08:49:45.546Z,96652.09
2022-09-12T08:52:18.349Z,96657.25
2022-09-12T08:54:46.720Z,96659.59
2022-09-12T08:57:16.413Z,96660.63
2022-09-12T08:59:45.872Z,96658.47
2022-09-12T09:02:46.733Z,96660.31
2022-09-12T09:05:24.667Z,96655.28
2022-09-12T09:08:13.441Z,96652.47
2022-09-12T09:10:50.352Z,96658.50
2022-09-12T09:13:50.002Z,96658.50
2022-09-12T09:16:26.460Z,96653.47
2022-09-12T09:18:58.377Z,96655.84
2022-09-12T09:21:33.560Z,96653.16
2022-09-12T09:24:06.929Z,96641.47
2022-09-12T09:26:44.485Z,96642.44
2022-09-12T09:29:18.722Z,96641.94
2022-09-12T09:31:49.724Z,96643.13
2022-09-12T09:34:22.682Z,96643.59
2022-09-12T09:36:53.611Z,96653.44
2022-09-12T09:39:34.723Z,96651.44
2022-09-12T09:42:19.327Z,96655.25
2022-09-12T09:44:49.459Z,96652.59
2022-09-12T09:47:19.617Z,96658.25
2022-09-12T09:49:47.686Z,96662.94
2022-09-12T09:52:21.987Z,96662.78
2022-09-12T09:54:54.896Z,96643.69
2022-09-12T09:57:42.068Z,96648.00
2022-09-12T10:00:25.954Z,96646.16
2022-09-12T10:03:25.384Z,96643.78
2022-09-12T10:05:55.332Z,96644.63
2022-09-12T10:08:27.472Z,96638.88
2022-09-12T10:11:02.904Z,96644.38
2022-09-12T10:13:38.988Z,96639.38
2022-09-12T10:16:08.806Z,96637.69
2022-09-12T10:18:40.158Z,96631.97
2022-09-12T10:21:17.635Z,96635.16
2022-09-12T10:23:48.704Z,96633.44
2022-09-12T10:26:21.014Z,96643.28
2022-09-12T10:28:53.520Z,96636.06
2022-09-12T10:31:29.548Z,96630.69
2022-09-12T10:34:00.045Z,96628.69
2022-09-12T10:36:38.472Z,96631.50
2022-09-12T10:39:14.023Z,96627.94
2022-09-12T10:41:42.846Z,96624.28
2022-09-12T10:44:17.239Z,96620.56
2022-09-12T10:46:45.364Z,96627.03
2022-09-12T10:49:30.246Z,96636.22
2022-09-12T10:52:17.248Z,96627.81
2022-09-12T10:54:46.582Z,96616.03
2022-09-12T10:57:44.114Z,96614.78
2022-09-12T11:00:17.952Z,96607.16
2022-09-12T11:02:57.738Z,96605.03
2022-09-12T11:05:40.974Z,96605.16
2022-09-12T11:08:19.267Z,96595.44
2022-09-12T11:10:57.096Z,96598.06
2022-09-12T11:13:45.758Z,96592.69
2022-09-12T11:16:26.488Z,96587.31
2022-09-12T11:19:22.411Z,96584.78
2022-09-12T11:22:06.444Z,96583.69
2022-09-12T11:24:49.910Z,96589.41
2022-09-12T11:27:34.928Z,96586.72
2022-09-12T11:30:07.550Z,96587.38
2022-09-12T11:33:02.421Z,96578.50
2022-09-12T11:35:32.601Z,96578.50
2022-09-12T11:38:27.075Z,96576.28
2022-09-12T11:40:57.793Z,96568.41
2022-09-12T11:43:37.076Z,96570.47
2022-09-12T11:46:11.765Z,96572.31
2022-09-12T11:48:46.208Z,96571.94
2022-09-12T11:51:19.840Z,96574.16
2022-09-12T11:53:59.195Z,96568.81
2022-09-12T11:56:27.498Z,96571.22
2022-09-12T11:59:04.298Z,96560.84
2022-09-12T12:01:41.977Z,96570.38
2022-09-12T12:04:35.321Z,96566.69
2022-09-12T12:07:06.641Z,96559.84
2022-09-12T12:09:35.710Z,96559.84
2022-09-12T12:12:07.910Z,96556.00
2022-09-12T12:14:44.371Z,96550.09
2022-09-12T12:17:17.584Z,96550.72
2022-09-12T12:19:47.699Z,96551.38
2022-09-12T12:22:19.138Z,96545.44
2022-09-12T12:25:07.437Z,96549.81
2022-09-12T12:27:51.420Z,96541.50
2022-09-12T12:31:02.398Z,96541.69
2022-09-12T12:34:01.618Z,96535.34
2022-09-12T12:36:40.431Z,96538.59
2022-09-12T12:39:46.138Z,96535.28
2022-09-12T12:43:04.583Z,96523.41
2022-09-12T12:46:03.322Z,96527.78
2022-09-12T12:49:10.603Z,96520.63
2022-09-12T12:51:56.944Z,96519.31
2022-09-12T12:54:34.510Z,96524.06
2022-09-12T12:57:06.007Z,96515.59
2022-09-12T12:59:34.670Z,96520.63
2022-09-12T13:02:02.888Z,96505.13
2022-09-12T13:04:34.092Z,96508.81
2022-09-12T13:07:08.187Z,96511.63
2022-09-12T13:09:44.367Z,96508.69
2022-09-12T13:12:22.264Z,96495.31
2022-09-12T13:14:53.959Z,96498.78
2022-09-12T13:17:32.969Z,96500.59
2022-09-12T13:20:31.018Z,96489.84
2022-09-12T13:22:59.531Z,96493.41
2022-09-12T13:25:33.344Z,96494.06
2022-09-12T13:28:18.464Z,96493.00
2022-09-12T13:30:50.145Z,96490.41
2022-09-12T13:33:23.252Z,96488.03
2022-09-12T13:36:21.215Z,96489.69
2022-09-12T13:39:00.176Z,96487.66
2022-09-12T13:41:48.218Z,96489.00
2022-09-12T13:44:20.533Z,96473.84
2022-09-12T13:46:48.879Z,96479.84
2022-09-12T13:49:23.106Z,96469.16
2022-09-12T13:52:01.303Z,96472.19
2022-09-12T13:54:29.715Z,96475.09
2022-09-12T13:56:57.931Z,96463.22
2022-09-12T13:59:26.263Z,96455.94
2022-09-12T14:01:54.304Z,96453.88
2022-09-12T14:04:42.377Z,96457.84
2022-09-12T14:07:20.259Z,96450.00
2022-09-12T14:09:55.842Z,96444.28
2022-09-12T14:12:27.028Z,96444.91
2022-09-12T14:14:55.103Z,96441.13
2022-09-12T14:17:29.785Z,96450.66
2022-09-12T14:19:59.483Z,96440.78
2022-09-12T14:22:29.894Z,96446.63
2022-09-12T14:24:59.623Z,96444.94
2022-09-12T14:27:32.863Z,96440.19
2022-09-12T14:30:06.775Z,96436.44
2022-09-12T14:32:35.022Z,96433.88
2022-09-12T14:35:20.512Z,96423.28
2022-09-12T14:37:52.445Z,96426.91
2022-09-12T14:40:22.392Z,96418.59
2022-09-12T14:42:53.088Z,96430.19
2022-09-12T14:45:28.426Z,96423.19
2022-09-12T14:47:58.161Z,96425.69
2022-09-12T14:50:29.569Z,96420.16
2022-09-12T14:53:06.909Z,96418.28
2022-09-12T14:55:43.449Z,96418.84
2022-09-12T14:58:17.581Z,96419.53
2022-09-12T15:01:21.495Z,96410.25
2022-09-12T15:03:53.836Z,96411.09
2022-09-12T15:06:25.633Z,96405.47
2022-09-12T15:08:56.786Z,96404.25
2022-09-12T15:11:24.802Z,96408.78
2022-09-12T15:13:53.067Z,96408.78
2022-09-12T15:16:21.112Z,96412.88
2022-09-12T15:18:49.005Z,96407.28
2022-09-12T15:21:19.771Z,96417.09
2022-09-12T15:23:49.643Z,96415.81
2022-09-12T15:26:21.572Z,96402.59
2022-09-12T15:28:49.823Z,96393.53
2022-09-12T15:31:25.355Z,96397.03
2022-09-12T15:33:54.060Z,96399.72
2022-09-12T15:36:23.851Z,96405.88
2022-09-12T15:38:53.270Z,96408.78
2022-09-12T15:41:24.675Z,96396.34
2022-09-12T15:43:52.627Z,96394.31
2022-09-12T15:46:20.964Z,96389.50
2022-09-12T15:48:50.353Z,96380.63
2022-09-12T15:51:20.006Z,96378.16
2022-09-12T15:53:48.997Z,96376.47
2022-09-12T15:56:17.928Z,96377.69
2022-09-12T15:58:58.225Z,96378.72
2022-09-12T16:01:27.622Z,96374.38
2022-09-12T16:03:55.615Z,96378.47
2022-09-12T16:06:24.113Z,96378.88
2022-09-12T16:08:52.025Z,96376.38
2022-09-12T16:11:22.055Z,96375.53
2022-09-12T16:13:53.108Z,96369.34
2022-09-12T16:16:21.213Z,96366.84
2022-09-12T16:18:49.242Z,96364.72
2022-09-12T16:21:17.329Z,96358.91
2022-09-12T16:23:45.481Z,96351.47
2022-09-12T16:26:14.094Z,96356.22
2022-09-12T16:28:42.155Z,96355.16
2022-09-12T16:31:13.925Z,96359.69
2022-09-12T16:33:42.115Z,96366.94
2022-09-12T16:36:12.152Z,96360.47
2022-09-12T16:38:44.444Z,96358.34
2022-09-12T16:41:13.287Z,96352.78
2022-09-12T16:43:41.363Z,96353.56
2022-09-12T16:46:13.562Z,96359.31
2022-09-12T16:48:48.077Z,96356.22
2022-09-12T16:51:20.812Z,96350.75
2022-09-12T16:53:49.379Z,96355.66
2022-09-12T16:56:18.438Z,96354.38
2022-09-12T16:58:46.771Z,96341.16
2022-09-12T17:01:18.282Z,96345.25
2022-09-12T17:03:46.326Z,96341.91
2022-09-12T17:06:16.555Z,96343.13
2022-09-12T17:08:46.644Z,96350.53
2022-09-12T17:11:17.553Z,96346.56
2022-09-12T17:14:03.896Z,96343.44
2022-09-12T17:16:35.433Z,96346.31
2022-09-12T17:19:03.827Z,96343.84
2022-09-12T17:21:32.380Z,96351.03
2022-09-12T17:24:00.452Z,96356.97
2022-09-12T17:26:28.967Z,96353.88
2022-09-12T17:28:56.898Z,96358.41
2022-09-12T17:31:24.836Z,96350.72
2022-09-12T17:33:57.280Z,96349.81
2022-09-12T17:36:26.635Z,96356.78
2022-09-12T17:38:55.232Z,96350.31
2022-09-12T17:41:25.449Z,96364.47
2022-09-12T17:43:57.313Z,96364.88
2022-09-12T17:46:27.252Z,96360.06
2022-09-12T17:48:58.507Z,96363.31
2022-09-12T17:51:28.968Z,96367.53
2022-09-12T17:54:00.105Z,96369.13
2022-09-12T17:56:29.588Z,96364.47
2022-09-12T17:58:58.746Z,96368.59
2022-09-12T18:01:46.191Z,96369.31
2022-09-12T18:04:16.356Z,96360.34
2022-09-12T18:06:48.085Z,96357.41
2022-09-12T18:09:18.493Z,96363.31
2022-09-12T18:11:48.169Z,96364.84
2022-09-12T18:14:17.226Z,96366.44
2022-09-12T18:16:45.619Z,96377.72
2022-09-12T18:19:15.547Z,96371.59
2022-09-12T18:21:43.831Z,96368.63
2022-09-12T18:24:12.387Z,96365.19
2022-09-12T18:26:40.558Z,96372.94
2022-09-12T18:29:08.523Z,96370.16
2022-09-12T18:31:36.977Z,96385.44
2022-09-12T18:34:06.221Z,96368.06
2022-09-12T18:36:35.575Z,96377.84
2022-09-12T18:39:03.534Z,96381.22
2022-09-12T18:41:31.487Z,96384.81
2022-09-12T18:44:01.072Z,96384.69
2022-09-12T18:46:30.475Z,96383.72
2022-09-12T18:48:59.373Z,96384.09
2022-09-12T18:51:31.364Z,96383.13
2022-09-12T18:54:02.995Z,96381.81
2022-09-12T18:56:33.275Z,96380.19
2022-09-12T18:59:02.809Z,96378.72
2022-09-12T19:01:32.952Z,96375.91
2022-09-12T19:04:04.707Z,96374.59
2022-09-12T19:06:35.213Z,96383.34
2022-09-12T19:09:08.078Z,96380.47
2022-09-12T19:11:38.410Z,96372.63
2022-09-12T19:14:06.826Z,96369.66
2022-09-12T19:16:35.421Z,96370.00
2022-09-12T19:19:03.609Z,96374.38
2022-09-12T19:21:32.952Z,96374.25
2022-09-12T19:24:03.019Z,96376.44
2022-09-12T19:26:33.338Z,96371.78
2022-09-12T19:29:02.571Z,96373.94
2022-09-12T19:31:31.418Z,96377.66
2022-09-12T19:34:01.891Z,96374.66
2022-09-12T19:36:47.133Z,96367.81
2022-09-12T19:39:16.439Z,96364.03
2022-09-12T19:41:46.160Z,96364.53
2022-09-12T19:44:14.779Z,96368.88
2022-09-12T19:46:43.410Z,96371.88
2022-09-12T19:49:12.801Z,96366.41
2022-09-12T19:51:41.192Z,96367.25
2022-09-12T19:54:09.404Z,96369.91
2022-09-12T19:56:37.474Z,96357.91
2022-09-12T19:59:06.766Z,96364.75
2022-09-12T20:01:37.043Z,96362.41
2022-09-12T20:04:06.890Z,96371.41
2022-09-12T20:06:35.052Z,96371.75
2022-09-12T20:09:32.919Z,96378.94
2022-09-12T20:12:01.073Z,96375.59
2022-09-12T20:14:30.458Z,96381.63
2022-09-12T20:16:58.462Z,96381.25
2022-09-12T20:19:26.548Z,96376.94
2022-09-12T20:21:54.433Z,96381.94
2022-09-12T20:24:22.446Z,96374.59
2022-09-12T20:26:50.415Z,96373.91
2022-09-12T20:29:18.587Z,96357.22
2022-09-12T20:31:47.953Z,96356.91
2022-09-12T20:34:18.545Z,96352.25
2022-09-12T20:36:46.667Z,96346.22
2022-09-12T20:39:16.214Z,96345.38
2022-09-12T20:41:44.523Z,96334.88
2022-09-12T20:44:12.737Z,96346.53
2022-09-12T20:46:41.024Z,96341.88
2022-09-12T20:49:10.557Z,96350.88
2022-09-12T20:51:39.035Z,96350.03
2022-09-12T20:54:08.110Z,96349.84
2022-09-12T20:56:37.578Z,96354.84
2022-09-12T20:59:06.173Z,96357.84
2022-09-12T21:01:34.429Z,96359.16
2022-09-12T21:04:02.818Z,96358.69
2022-09-12T21:06:32.736Z,96350.50
2022-09-12T21:09:00.861Z,96350.50
2022-09-12T21:11:29.583Z,96345.78
2022-09-12T21:13:58.033Z,96347.94
2022-09-12T21:16:26.052Z,96355.94
2022-09-12T21:18:55.249Z,96355.56
2022-09-12T21:21:23.560Z,96357.72
2022-09-12T21:23:55.207Z,96358.06
2022-09-12T21:26:23.265Z,96357.53
2022-09-12T21:28:51.712Z,96358.69
2022-09-12T21:31:19.930Z,96353.03
2022-09-12T21:33:48.141Z,96357.66
2022-09-12T21:36:16.177Z,96358.28
2022-09-12T21:38:44.225Z,96356.63
2022-09-12T21:41:15.030Z,96361.44
2022-09-12T21:43:44.139Z,96351.94
2022-09-12T21:46:12.859Z,96351.25
2022-09-12T21:48:40.899Z,96352.88
2022-09-12T21:51:08.858Z,96354.59
2022-09-12T21:53:37.453Z,96352.88
2022-09-12T21:56:07.249Z,96347.41
2022-09-12T21:58:37.874Z,96338.91
2022-09-12T22:01:06.237Z,96327.53
2022-09-12T22:03:34.366Z,96332.88
2022-09-12T22:06:04.710Z,96323.91
2022-09-12T22:08:34.214Z,96333.88
2022-09-12T22:11:04.648Z,96333.19
2022-09-12T22:13:33.772Z,96331.50
2022-09-12T22:16:03.835Z,96326.50
2022-09-12T22:18:34.406Z,96321.81
2022-09-12T22:21:04.316Z,96314.00
2022-09-12T22:23:50.029Z,96307.84
2022-09-12T22:26:18.440Z,96304.50
2022-09-12T22:28:47.167Z,96296.81
2022-09-12T22:31:17.161Z,96292.50
2022-09-12T22:33:45.714Z,96299.13
2022-09-12T22:36:14.131Z,96302.09
2022-09-12T22:38:42.139Z,96295.28
2022-09-12T22:41:12.036Z,96297.41
2022-09-12T22:43:40.146Z,96310.50
2022-09-12T22:46:08.830Z,96297.38
2022-09-12T22:48:38.428Z,96302.16
2022-09-12T22:51:07.257Z,96300.50
2022-09-12T22:53:36.221Z,96303.28
2022-09-12T22:56:05.566Z,96311.56
2022-09-12T22:58:33.802Z,96310.19
2022-09-12T23:01:01.938Z,96309.53
2022-09-12T23:03:29.988Z,96314.84
2022-09-12T23:05:59.635Z,96308.00
2022-09-12T23:08:29.538Z,96309.16
2022-09-12T23:11:04.716Z,96303.31
2022-09-12T23:13:32.701Z,96313.09
2022-09-12T23:16:01.669Z,96320.72
2022-09-12T23:18:30.291Z,96315.72
2022-09-12T23:21:01.292Z,96315.72
2022-09-12T23:23:29.588Z,96309.03
2022-09-12T23:26:05.976Z,96317.16
2022-09-12T23:28:34.376Z,96313.84
2022-09-12T23:31:02.995Z,96306.16
2022-09-12T23:33:32.162Z,96308.81
2022-09-12T23:36:02.866Z,96298.50
2022-09-12T23:38:31.224Z,96298.84
2022-09-12T23:40:59.834Z,96284.06
2022-09-12T23:43:28.240Z,96287.38
2022-09-12T23:45:56.278Z,96277.06
2022-09-12T23:48:24.818Z,96268.41
2022-09-12T23:50:53.065Z,96256.56
2022-09-12T23:53:22.874Z,96271.00
2022-09-12T23:55:51.205Z,96273.66
2022-09-12T23:58:19.493Z,96275.63
